Südanflug-Wetter

Südanflüge sind sowohl am Euroairport Basel-Mulhouse-Freiburg als auch am Flughafen Unique Zürich ein Thema für die Anwohner. In Basel hängen Südanflüge von den Windverhältnissen ab. Für den Euroairport Basel-Mulhouse-Freiburg bereitet MeteoNews deshalb aktuelle Winddaten auf, die direkt auf der Homepage des Flughafens eingebunden werden. Angaben zum Flughafen Zürich finden Sie hier.

In Zürich sind Südanflüge auf die Piste 34 möglich, wenn die horizontale Sichtweite mindestens 750 m beträgt und die Wolkenuntergrenze im Anflugsektor nicht tiefer als 300 Fuss (knapp 100 m) liegt (diese Werte gelten seit dem 1. November 2004).

Prognose für Südanflüge

Heute Samstag sind Südanflüge möglich.
(Prognose ohne Gewähr. Die Vorhersage wird mehrmals täglich aktualisiert. Verantwortlicher Meteorologe: Roger Perret, 28.05.2022 05:29)

Analyse der letzten METAR-Messungen

Unser Tool wertet die letzten 20 offiziellen Wettermeldungen (METAR) des Flughafens Zürich aus und entscheidet aufgrund der beiden Werte für Sichtweite und Ceiling (Hauptwolkenuntergrenze), ob Südanflüge nach obiger Definition möglich wären. Allerdings repräsentiert der Wert für die Wolkenuntergrenze in der METAR-Meldung nicht die Bewölkung im Anflugsektor sondern generell um den Flughafen. Da über die Bewölkung im Anflugsektor kurzfristig aufgrund von Beobachtungen des Towers und von Piloten entschieden wird, kann die Angabe unseres Tools in gewissen Fällen von den realen Entscheiden der Flugsicherung abweichen.

Südanflüge Datum Uhrzeit Sichtweite Ceiling Vollständige METAR-Meldung
möglich 2022-05-28 07:50:00 > 10 km 2130 m LSZH 280550Z VRB02KT 9999 FEW015 SCT060 BKN070 14/09 Q1021 NOSIG
möglich 2022-05-28 07:20:00 > 10 km 1830 m LSZH 280520Z 02003KT 9999 FEW015 BKN060 13/09 Q1021 NOSIG
möglich 2022-05-28 06:50:00 > 10 km 1830 m LSZH 280450Z 01002KT 9999 FEW015 BKN060 13/09 Q1021 NOSIG
möglich 2022-05-28 06:20:00 > 10 km 1680 m LSZH 280420Z 33003KT 9999 FEW010 BKN055 13/09 Q1021 NOSIG
möglich 2022-05-28 05:50:00 > 10 km 1680 m LSZH 280350Z 32003KT 9999 FEW010 BKN055 13/09 Q1020 NOSIG
möglich 2022-05-28 05:20:00 > 10 km 1520 m LSZH 280320Z AUTO 34002KT 9999 BKN050 13/09 Q1020 NOSIG
möglich 2022-05-28 04:50:00 > 10 km 1520 m LSZH 280250Z AUTO 32002KT 9999 BKN050 13/09 Q1021 NOSIG
möglich 2022-05-28 04:20:00 > 10 km 1520 m LSZH 280220Z AUTO 34003KT 9999 BKN050 13/09 Q1021 NOSIG
möglich 2022-05-28 03:50:00 > 10 km 1460 m LSZH 280150Z AUTO 32003KT 9999 BKN048 14/09 Q1021 NOSIG
möglich 2022-05-28 03:20:00 > 10 km LSZH 280120Z AUTO 32004KT 9999 FEW046 14/09 Q1021 NOSIG
möglich 2022-05-28 02:50:00 > 10 km 1400 m LSZH 280050Z AUTO 32003KT 9999 BKN046 14/10 Q1021 NOSIG
möglich 2022-05-28 02:20:00 > 10 km 1460 m LSZH 280020Z AUTO 34003KT 9999 BKN048 14/09 Q1022 NOSIG
möglich 2022-05-28 01:50:00 > 10 km LSZH 272350Z AUTO 34003KT 9999 FEW045 SCT050 14/10 Q1022 NOSIG
möglich 2022-05-28 01:20:00 > 10 km 1310 m LSZH 272320Z AUTO 36004KT 9999 BKN043 15/08 Q1022 NOSIG
möglich 2022-05-28 00:50:00 > 10 km 1280 m LSZH 272250Z AUTO 34004KT 9999 FEW038 BKN042 15/09 Q1022 NOSIG
möglich 2022-05-28 00:20:00 > 10 km 1160 m LSZH 272220Z AUTO 35004KT 9999 SCT033 BKN038 16/09 Q1023 NOSIG
möglich 2022-05-27 23:50:00 > 10 km 1160 m LSZH 272150Z AUTO 35004KT 9999 SCT034 BKN038 16/09 Q1023 NOSIG
möglich 2022-05-27 23:20:00 > 10 km 1220 m LSZH 272120Z VRB01KT 9999 BKN040 16/09 Q1023 NOSIG
möglich 2022-05-27 22:50:00 > 10 km 1280 m LSZH 272050Z 36004KT 9999 FEW035 BKN042 16/09 Q1023 NOSIG
möglich 2022-05-27 22:20:00 > 10 km 1280 m LSZH 272020Z 36006KT 9999 SCT035 BKN042 17/09 Q1023 NOSIG